首页
METAR-TAF:

METAR-TAF

机场 :

曼谷, 泰国

廊曼国际机场

纬度: 13-54-45N, 经度: 100-36-24E, 海拔: 4米

当前天气观测

该预报发布于30分钟前的17:30 UTC
风速5节,风向,在东南西南之间变化
温度 30°C
湿度 79%
气压 1008 hPa
能见度10公里或以上
少量云层高于2500英尺

METAR: VTBD 241730Z 18005KT 140V220 9999 FEW025 30/26 Q1008 NOSIG

时间: 01:00 (18:00 UTC)

预报

该预报发布于1小时和0分钟前的17:00 UTC
预报有效从24日的 18点(UTC)到 25日的 24点(UTC)
风速8节,风向
能见度10公里或以上
少量云层高于2000英尺
成为
从 24日的 21点(UTC)到 24日的 23点(UTC)
风速5节,风向东转东南
能見度: 8000
成为
从 25日的 01点(UTC)到 25日的 03点(UTC)
风速8节,风向
能见度10公里或以上

TAF: VTBD 241700Z 2418/2524 18008KT 9999 FEW020 BECMG 2421/2423 12005KT 8000 BECMG 2501/2503 19008KT 9999

超过4000个机场的气象观测和天气预报(METAR&TAF报告)。

可查询的气象台以黄色和红色小点在地图上表示。

将鼠标移到小点上方,可查看气象台名称。

然后点击查看天气观测和预报。

如需切换地图:点击带黑十字的绿色按钮放大地图;点击带横线的绿色按钮缩小地图;或者点击绿色箭头查看邻近地区的地图。


METAR-TAF: